Time;durP1;ratioP1;P1;durP2;ratioP2;P2;SDS_P1;SDS_P2;PMS_P1;PMS_P2;Temp;Humidity;BMP_temperature;BMP_pressure;BME280_temperature;BME280_humidity;BME280_pressure;Samples;Min_cycle;Max_cycle;Signal;HPM_P1;HPM_P2
2022/03/03 00:00:06;;;;;;;;;;;8.60;90.20;;;;;;4316692;33;43404;-82
2022/03/03 00:02:33;;;;;;;;;;;8.60;88.50;;;;;;4315440;33;42310;-83
2022/03/03 00:05:00;;;;;;;;;;;8.60;89.10;;;;;;4315936;33;43800;-83
2022/03/03 00:07:27;;;;;;;;;;;8.60;89.70;;;;;;4326938;33;43454;-83
2022/03/03 00:09:54;;;;;;;;;;;8.60;88.20;;;;;;4316937;33;42632;-83
2022/03/03 00:12:21;;;;;;;;;;;8.60;87.70;;;;;;4316775;33;43490;-83
2022/03/03 00:14:48;;;;;;;;;;;8.50;89.40;;;;;;4316981;33;44338;-83
2022/03/03 00:17:15;;;;;;;;;;;8.50;87.70;;;;;;4315827;33;44095;-83
2022/03/03 00:19:43;;;;;;;;;;;8.50;88.30;;;;;;4315330;33;42823;-83
2022/03/03 00:22:10;;;;;;;;;;;8.50;88.30;;;;;;4316738;33;46138;-83
2022/03/03 00:24:37;;;;;;;;;;;8.40;90.10;;;;;;4316446;33;43903;-83
2022/03/03 00:27:05;;;;;;;;;;;8.40;90.50;;;;;;4315545;33;43065;-83
2022/03/03 00:29:32;;;;;;;;;;;8.40;90.30;;;;;;4316333;33;42695;-83
2022/03/03 00:31:59;;;;;;;;;;;8.40;90.90;;;;;;4316652;33;45909;-83
2022/03/03 00:34:26;;;;;;;;;;;8.50;91.50;;;;;;4315115;33;43441;-83
2022/03/03 00:36:53;;;;;;;;;;;8.40;91.10;;;;;;4316331;33;43252;-83
2022/03/03 00:39:21;;;;;;;;;;;8.40;91.90;;;;;;4315664;33;44100;-83
2022/03/03 00:41:48;;;;;;;;;;;8.40;92.10;;;;;;4316204;33;44127;-83
2022/03/03 00:44:15;;;;;;;;;;;8.40;92.10;;;;;;4315454;33;45268;-83
2022/03/03 00:46:42;;;;;;;;;;;8.40;92.30;;;;;;4316121;33;44186;-83
2022/03/03 00:49:09;;;;;;;;;;;8.50;92.40;;;;;;4316438;33;43444;-83
2022/03/03 00:51:36;;;;;;;;;;;8.40;92.40;;;;;;4316152;33;43232;-84
2022/03/03 00:54:03;;;;;;;;;;;8.40;92.50;;;;;;4315161;33;44146;-83
2022/03/03 00:56:30;;;;;;;;;;;8.40;92.40;;;;;;4314894;33;43198;-83
2022/03/03 00:58:57;;;;;;;;;;;8.40;92.40;;;;;;4316381;33;43865;-83
2022/03/03 01:01:24;;;;;;;;;;;8.40;92.80;;;;;;4315017;33;43535;-83
2022/03/03 01:03:52;;;;;;;;;;;8.40;92.60;;;;;;4315922;33;42727;-83
2022/03/03 01:06:19;;;;;;;;;;;8.40;92.70;;;;;;4314790;33;42509;-83
2022/03/03 01:08:46;;;;;;;;;;;8.40;92.10;;;;;;4316148;33;42905;-83
2022/03/03 01:11:13;;;;;;;;;;;8.30;92.10;;;;;;4316051;33;44986;-83
2022/03/03 01:13:40;;;;;;;;;;;8.30;92.30;;;;;;4314628;33;43286;-83
2022/03/03 01:16:07;;;;;;;;;;;8.30;92.40;;;;;;4315624;33;44210;-83
2022/03/03 01:18:34;;;;;;;;;;;8.20;92.40;;;;;;4316031;33;43560;-84
2022/03/03 01:21:01;;;;;;;;;;;8.20;92.50;;;;;;4327028;33;43467;-83
2022/03/03 01:23:28;;;;;;;;;;;8.20;91.90;;;;;;4326952;33;44200;-83
2022/03/03 01:25:55;;;;;;;;;;;8.20;92.60;;;;;;4315980;33;43486;-83
2022/03/03 01:28:22;;;;;;;;;;;8.10;92.20;;;;;;4315977;33;44231;-83
2022/03/03 01:30:50;;;;;;;;;;;8.00;92.00;;;;;;4315559;33;43480;-83
2022/03/03 01:33:17;;;;;;;;;;;8.00;91.70;;;;;;4314608;33;44128;-83
2022/03/03 01:35:44;;;;;;;;;;;8.00;92.70;;;;;;4315419;33;45134;-83
2022/03/03 01:38:11;;;;;;;;;;;8.00;92.60;;;;;;4315867;33;44661;-83
2022/03/03 01:40:38;;;;;;;;;;;8.00;92.40;;;;;;4326618;33;42567;-84
2022/03/03 01:43:05;;;;;;;;;;;8.00;92.90;;;;;;4315007;33;42767;-83
2022/03/03 01:45:32;;;;;;;;;;;8.00;92.40;;;;;;4315636;33;44141;-83
2022/03/03 01:47:59;;;;;;;;;;;8.00;92.50;;;;;;4326730;33;43328;-83
2022/03/03 01:50:27;;;;;;;;;;;7.90;92.20;;;;;;4326708;33;43901;-83
2022/03/03 01:52:54;;;;;;;;;;;7.90;91.80;;;;;;4326536;33;43599;-83
2022/03/03 01:55:21;;;;;;;;;;;7.90;91.60;;;;;;4314189;33;44099;-83
2022/03/03 01:57:49;;;;;;;;;;;7.80;91.40;;;;;;4314536;33;43275;-83
2022/03/03 02:00:16;;;;;;;;;;;7.80;91.40;;;;;;4315623;33;43020;-83
2022/03/03 02:02:44;;;;;;;;;;;7.70;91.50;;;;;;4315265;33;42829;-83
2022/03/03 02:05:11;;;;;;;;;;;7.60;91.40;;;;;;4315600;33;43474;-84
2022/03/03 02:07:38;;;;;;;;;;;7.60;91.60;;;;;;4326768;33;43057;-83
2022/03/03 02:10:06;;;;;;;;;;;7.60;91.60;;;;;;4327168;33;20008;-83
2022/03/03 02:12:33;;;;;;;;;;;7.50;92.40;;;;;;4326344;33;42655;-83
2022/03/03 02:15:00;;;;;;;;;;;7.60;93.00;;;;;;4315403;33;44219;-83
2022/03/03 02:17:28;;;;;;;;;;;7.60;92.50;;;;;;4315289;33;43732;-83
2022/03/03 02:19:55;;;;;;;;;;;7.60;92.40;;;;;;4315820;33;44780;-83
2022/03/03 02:22:22;;;;;;;;;;;7.60;92.10;;;;;;4314567;33;44130;-83
2022/03/03 02:24:49;;;;;;;;;;;7.60;91.90;;;;;;4314605;33;43995;-84
2022/03/03 02:27:16;;;;;;;;;;;7.50;92.20;;;;;;4315590;33;43927;-82
2022/03/03 02:29:44;;;;;;;;;;;7.50;92.70;;;;;;4327287;33;43195;-83
2022/03/03 02:32:11;;;;;;;;;;;7.50;92.60;;;;;;4317185;33;43939;-83
2022/03/03 02:34:46;;;;;;;;;;;7.50;92.60;;;;;;4318418;33;44046;-83
2022/03/03 02:37:13;;;;;;;;;;;7.50;92.60;;;;;;4329424;33;44190;-82
2022/03/03 02:39:41;;;;;;;;;;;7.40;91.80;;;;;;4317780;33;44114;-83
2022/03/03 02:42:09;;;;;;;;;;;7.40;92.20;;;;;;4329072;33;42332;-83
2022/03/03 02:44:36;;;;;;;;;;;7.40;92.70;;;;;;4317754;33;42515;-83
2022/03/03 02:47:03;;;;;;;;;;;7.40;92.60;;;;;;4316885;33;44259;-83
2022/03/03 02:49:30;;;;;;;;;;;7.40;92.90;;;;;;4329171;33;43279;-83
2022/03/03 02:51:57;;;;;;;;;;;7.40;92.70;;;;;;4317984;33;43903;-83
2022/03/03 02:54:24;;;;;;;;;;;7.40;92.60;;;;;;4317877;33;44215;-83
2022/03/03 02:59:37;;;;;;;;;;;7.50;93.60;;;;;;4317860;33;44261;-83
2022/03/03 03:02:04;;;;;;;;;;;7.50;93.40;;;;;;4316414;33;43884;-83
2022/03/03 03:04:31;;;;;;;;;;;7.50;93.40;;;;;;4316429;33;43444;-83
2022/03/03 03:06:58;;;;;;;;;;;7.50;93.70;;;;;;4316803;33;43470;-84
2022/03/03 03:09:25;;;;;;;;;;;7.50;93.80;;;;;;4316803;33;45916;-83
2022/03/03 03:11:53;;;;;;;;;;;7.40;94.00;;;;;;4317672;33;43494;-83
2022/03/03 03:14:20;;;;;;;;;;;7.50;94.00;;;;;;4328647;33;43810;-83
2022/03/03 03:16:47;;;;;;;;;;;7.50;94.00;;;;;;4316568;33;44106;-83
2022/03/03 03:19:14;;;;;;;;;;;7.50;94.20;;;;;;4328767;33;44093;-83
2022/03/03 03:21:41;;;;;;;;;;;7.40;94.10;;;;;;4317381;33;43856;-83
2022/03/03 03:24:08;;;;;;;;;;;7.40;94.00;;;;;;4317235;33;43867;-83
2022/03/03 03:26:35;;;;;;;;;;;7.40;94.10;;;;;;4316573;33;42321;-83
2022/03/03 03:29:02;;;;;;;;;;;7.40;93.50;;;;;;4317581;33;44219;-83
2022/03/03 03:31:29;;;;;;;;;;;7.30;93.50;;;;;;4317115;33;43927;-82
2022/03/03 03:33:56;;;;;;;;;;;7.40;94.00;;;;;;4317450;33;43477;-83
2022/03/03 03:36:24;;;;;;;;;;;7.30;93.70;;;;;;4317465;33;43290;-83
2022/03/03 03:38:51;;;;;;;;;;;7.30;93.60;;;;;;4317235;33;43006;-83
2022/03/03 03:41:18;;;;;;;;;;;7.20;93.80;;;;;;4316851;33;42949;-83
2022/03/03 03:43:45;;;;;;;;;;;7.20;93.90;;;;;;4316288;33;42928;-84
2022/03/03 03:46:12;;;;;;;;;;;7.20;93.50;;;;;;4316928;33;43183;-83
2022/03/03 03:48:39;;;;;;;;;;;7.10;93.80;;;;;;4327881;33;42603;-83
2022/03/03 03:51:06;;;;;;;;;;;7.10;93.80;;;;;;4315731;33;43020;-83
2022/03/03 03:53:33;;;;;;;;;;;7.00;94.10;;;;;;4328000;33;44116;-83
2022/03/03 03:56:00;;;;;;;;;;;7.00;94.10;;;;;;4315846;33;43640;-83
2022/03/03 03:58:27;;;;;;;;;;;7.00;94.50;;;;;;4317201;33;43358;-83
2022/03/03 04:00:54;;;;;;;;;;;7.00;94.50;;;;;;4317002;33;44586;-82
2022/03/03 04:03:21;;;;;;;;;;;7.00;94.70;;;;;;4327757;33;44258;-83
2022/03/03 04:05:48;;;;;;;;;;;7.00;94.10;;;;;;4328105;33;45483;-84
2022/03/03 04:08:15;;;;;;;;;;;7.00;94.70;;;;;;4315621;33;43861;-83
2022/03/03 04:10:43;;;;;;;;;;;7.10;94.80;;;;;;4317535;33;20022;-83
2022/03/03 04:13:10;;;;;;;;;;;7.00;94.30;;;;;;4316876;33;42914;-82
2022/03/03 04:15:37;;;;;;;;;;;7.00;93.90;;;;;;4316871;33;43258;-83
2022/03/03 04:18:04;;;;;;;;;;;7.00;93.70;;;;;;4315396;33;43478;-83
2022/03/03 04:20:31;;;;;;;;;;;7.00;93.70;;;;;;4315412;33;44297;-83
2022/03/03 04:22:58;;;;;;;;;;;6.90;93.60;;;;;;4316758;33;43497;-83
2022/03/03 04:25:26;;;;;;;;;;;6.90;93.80;;;;;;4327488;33;43952;-83
2022/03/03 04:27:53;;;;;;;;;;;6.90;94.00;;;;;;4315186;33;44294;-83
2022/03/03 04:30:25;;;;;;;;;;;6.90;94.20;;;;;;4316738;33;45778;-83
2022/03/03 04:32:52;;;;;;;;;;;6.90;94.00;;;;;;4316840;33;43463;-83
2022/03/03 04:35:19;;;;;;;;;;;6.90;94.00;;;;;;4316844;33;43630;-82
2022/03/03 04:37:46;;;;;;;;;;;6.80;93.60;;;;;;4316134;33;44321;-83
2022/03/03 04:40:13;;;;;;;;;;;6.80;93.60;;;;;;4327687;33;43234;-83
2022/03/03 04:42:40;;;;;;;;;;;6.80;93.80;;;;;;4327516;33;44335;-83
2022/03/03 04:45:07;;;;;;;;;;;6.70;93.60;;;;;;4315362;33;44218;-83
2022/03/03 04:47:34;;;;;;;;;;;6.70;93.40;;;;;;4316025;33;42714;-83
2022/03/03 04:50:01;;;;;;;;;;;6.70;93.40;;;;;;4315416;33;45057;-83
2022/03/03 04:52:28;;;;;;;;;;;6.70;94.00;;;;;;4316181;33;43990;-83
2022/03/03 04:54:55;;;;;;;;;;;6.70;93.80;;;;;;4315485;33;42780;-83
2022/03/03 04:57:22;;;;;;;;;;;6.70;94.20;;;;;;4327372;33;43913;-84
2022/03/03 04:59:49;;;;;;;;;;;6.70;93.80;;;;;;4327331;33;42984;-83
2022/03/03 05:02:16;;;;;;;;;;;6.70;94.00;;;;;;4315853;33;43475;-83
2022/03/03 05:04:44;;;;;;;;;;;6.70;93.90;;;;;;4327297;33;45296;-83
2022/03/03 05:07:11;;;;;;;;;;;6.70;93.80;;;;;;4315250;33;43737;-82
2022/03/03 05:09:38;;;;;;;;;;;6.70;93.30;;;;;;4316131;33;43794;-83
2022/03/03 05:12:05;;;;;;;;;;;6.60;93.30;;;;;;4316210;33;43750;-83
2022/03/03 05:14:32;;;;;;;;;;;6.60;93.50;;;;;;4315716;33;42244;-83
2022/03/03 05:16:59;;;;;;;;;;;6.60;93.70;;;;;;4315774;33;44046;-83
2022/03/03 05:19:26;;;;;;;;;;;6.60;93.50;;;;;;4315795;33;44049;-83
2022/03/03 05:21:53;;;;;;;;;;;6.60;93.70;;;;;;4326938;33;43377;-83
2022/03/03 05:24:20;;;;;;;;;;;6.60;93.70;;;;;;4316010;33;44087;-83
2022/03/03 05:26:47;;;;;;;;;;;6.60;93.10;;;;;;4315975;33;44109;-83
2022/03/03 05:29:14;;;;;;;;;;;6.50;92.70;;;;;;4315771;33;44035;-83
2022/03/03 05:31:41;;;;;;;;;;;6.50;92.90;;;;;;4314494;33;43450;-83
2022/03/03 05:34:08;;;;;;;;;;;6.50;93.20;;;;;;4326549;33;43899;-83
2022/03/03 05:36:38;;;;;;;;;;;6.50;93.20;;;;;;4315980;33;43117;-83
2022/03/03 05:39:05;;;;;;;;;;;6.50;92.60;;;;;;4326510;33;43812;-83
2022/03/03 05:41:32;;;;;;;;;;;6.40;93.10;;;;;;4315967;33;42014;-84
2022/03/03 05:43:59;;;;;;;;;;;6.40;92.60;;;;;;4315563;33;44391;-83
2022/03/03 05:46:27;;;;;;;;;;;6.40;92.30;;;;;;4315663;33;43891;-83
2022/03/03 05:48:54;;;;;;;;;;;6.40;92.50;;;;;;4326406;33;43934;-83
2022/03/03 05:51:21;;;;;;;;;;;6.40;92.00;;;;;;4314686;33;44083;-83
2022/03/03 05:53:48;;;;;;;;;;;6.40;92.40;;;;;;4315780;33;44084;-83
2022/03/03 05:56:17;;;;;;;;;;;6.30;92.60;;;;;;4315403;33;44341;-83
2022/03/03 05:58:48;;;;;;;;;;;6.30;92.70;;;;;;4315346;33;44226;-82
2022/03/03 06:01:16;;;;;;;;;;;6.40;93.00;;;;;;4315334;33;45107;-83
2022/03/03 06:03:46;;;;;;;;;;;6.30;92.70;;;;;;4315421;33;43341;-82
2022/03/03 06:06:19;;;;;;;;;;;6.30;92.60;;;;;;4329652;33;45861;-81
2022/03/03 06:08:49;;;;;;;;;;;6.30;93.00;;;;;;4317678;33;45150;-82
2022/03/03 06:11:18;;;;;;;;;;;6.30;92.70;;;;;;4319476;33;20065;-83
2022/03/03 06:13:46;;;;;;;;;;;6.30;92.70;;;;;;4318188;33;42636;-83
2022/03/03 06:16:17;;;;;;;;;;;6.30;92.70;;;;;;4329507;33;42957;-82
2022/03/03 06:18:46;;;;;;;;;;;6.20;92.50;;;;;;4318468;33;43413;-83
2022/03/03 06:21:13;;;;;;;;;;;6.20;92.40;;;;;;4318526;33;44349;-83
2022/03/03 06:23:40;;;;;;;;;;;6.20;92.60;;;;;;4318156;33;43470;-82
2022/03/03 06:26:09;;;;;;;;;;;6.20;92.90;;;;;;4329717;33;44261;-83
2022/03/03 06:28:37;;;;;;;;;;;6.10;92.90;;;;;;4318504;33;44739;-84
2022/03/03 06:31:04;;;;;;;;;;;6.20;92.80;;;;;;4318377;33;43200;-83
2022/03/03 06:33:33;;;;;;;;;;;6.20;93.60;;;;;;4318318;33;43201;-83
2022/03/03 06:36:00;;;;;;;;;;;6.20;92.60;;;;;;4318320;33;43839;-83
2022/03/03 06:38:27;;;;;;;;;;;6.20;92.60;;;;;;4329403;33;43466;-82
2022/03/03 06:40:57;;;;;;;;;;;6.10;92.60;;;;;;4317958;33;44909;-83
2022/03/03 06:43:25;;;;;;;;;;;6.10;92.90;;;;;;4317988;33;44244;-83
2022/03/03 06:45:52;;;;;;;;;;;6.10;93.00;;;;;;4318189;33;44376;-83
2022/03/03 06:48:19;;;;;;;;;;;6.10;93.10;;;;;;4318152;33;43843;-83
2022/03/03 06:50:49;;;;;;;;;;;6.10;93.50;;;;;;4317975;33;43834;-83
2022/03/03 06:53:16;;;;;;;;;;;6.10;93.30;;;;;;4318392;33;43836;-83
2022/03/03 06:55:44;;;;;;;;;;;6.10;93.40;;;;;;4316601;33;42916;-82
2022/03/03 06:58:12;;;;;;;;;;;6.10;93.80;;;;;;4328930;33;42196;-83
2022/03/03 07:00:39;;;;;;;;;;;6.10;93.40;;;;;;4317883;33;42799;-83
2022/03/03 07:03:07;;;;;;;;;;;6.10;93.30;;;;;;4317340;33;43458;-83
2022/03/03 07:05:35;;;;;;;;;;;6.00;93.50;;;;;;4317721;33;43114;-83
2022/03/03 07:08:02;;;;;;;;;;;6.00;93.70;;;;;;4316524;33;43859;-83
2022/03/03 07:10:29;;;;;;;;;;;6.00;93.60;;;;;;4316391;33;43737;-82
2022/03/03 07:12:56;;;;;;;;;;;6.00;93.70;;;;;;4317814;33;44644;-83
2022/03/03 07:15:24;;;;;;;;;;;6.00;94.10;;;;;;4328486;33;43217;-83
2022/03/03 07:17:53;;;;;;;;;;;6.00;94.00;;;;;;4328445;33;42648;-83
2022/03/03 07:20:23;;;;;;;;;;;6.00;94.20;;;;;;4316125;33;45944;-83
2022/03/03 07:22:53;;;;;;;;;;;6.10;94.90;;;;;;4317667;33;44414;-82
2022/03/03 07:25:21;;;;;;;;;;;6.10;94.70;;;;;;4316698;33;43850;-82
2022/03/03 07:27:51;;;;;;;;;;;6.10;94.00;;;;;;4328563;33;44768;-83
2022/03/03 07:30:25;;;;;;;;;;;6.10;94.40;;;;;;4317739;33;43713;-83
2022/03/03 07:33:04;;;;;;;;;;;6.10;94.10;;;;;;4317267;33;43914;-82
2022/03/03 07:35:32;;;;;;;;;;;6.10;94.00;;;;;;4317729;33;43975;-83
2022/03/03 07:38:03;;;;;;;;;;;6.10;94.50;;;;;;4316964;33;43244;-82
2022/03/03 07:40:30;;;;;;;;;;;6.10;94.20;;;;;;4328357;33;45314;-83
2022/03/03 07:42:58;;;;;;;;;;;6.10;94.00;;;;;;4317112;33;43053;-83
2022/03/03 07:45:26;;;;;;;;;;;6.10;94.00;;;;;;4316949;33;44283;-83
2022/03/03 07:47:55;;;;;;;;;;;6.20;94.30;;;;;;4316199;33;43861;-82
2022/03/03 07:50:23;;;;;;;;;;;6.10;94.10;;;;;;4316848;33;42440;-82
2022/03/03 07:52:51;;;;;;;;;;;6.20;94.20;;;;;;4328247;33;43199;-83
2022/03/03 07:55:18;;;;;;;;;;;6.20;94.20;;;;;;4317235;33;44254;-83
2022/03/03 07:57:59;;;;;;;;;;;6.20;94.40;;;;;;4317136;33;44150;-82
2022/03/03 08:00:31;;;;;;;;;;;6.20;94.30;;;;;;4315880;33;42538;-83
2022/03/03 08:02:59;;;;;;;;;;;6.20;94.70;;;;;;4328137;33;43848;-83
2022/03/03 08:05:30;;;;;;;;;;;6.20;94.80;;;;;;4316019;33;43107;-83
2022/03/03 08:08:00;;;;;;;;;;;6.20;94.90;;;;;;4317288;33;42652;-83
2022/03/03 08:10:27;;;;;;;;;;;6.30;95.30;;;;;;4316668;33;41953;-83
2022/03/03 08:12:56;;;;;;;;;;;6.30;95.30;;;;;;4328782;33;20006;-83
2022/03/03 08:15:24;;;;;;;;;;;6.30;95.20;;;;;;4327632;33;43308;-82
2022/03/03 08:17:52;;;;;;;;;;;6.40;95.10;;;;;;4316902;33;43767;-83
2022/03/03 08:20:20;;;;;;;;;;;6.30;95.20;;;;;;4315616;33;43132;-83
2022/03/03 08:22:47;;;;;;;;;;;6.40;95.70;;;;;;4316395;33;43219;-82
2022/03/03 08:25:15;;;;;;;;;;;6.40;95.60;;;;;;4316336;33;44199;-84
2022/03/03 08:27:42;;;;;;;;;;;6.40;95.50;;;;;;4315919;33;44044;-83
2022/03/03 08:30:10;;;;;;;;;;;6.50;95.50;;;;;;4316335;33;43499;-84
2022/03/03 08:32:39;;;;;;;;;;;6.40;95.10;;;;;;4316378;33;44191;-83
2022/03/03 08:35:12;;;;;;;;;;;6.50;94.80;;;;;;4327894;33;43168;-84
2022/03/03 08:37:44;;;;;;;;;;;6.50;95.30;;;;;;4316266;33;44295;-84
2022/03/03 08:40:14;;;;;;;;;;;6.50;94.30;;;;;;4316263;33;44093;-85
2022/03/03 08:42:46;;;;;;;;;;;6.50;95.00;;;;;;4327612;33;43359;-84
2022/03/03 08:45:13;;;;;;;;;;;6.60;94.40;;;;;;4316525;33;43002;-83
2022/03/03 08:47:42;;;;;;;;;;;6.60;94.70;;;;;;4316535;33;44313;-83
2022/03/03 08:50:13;;;;;;;;;;;6.60;94.60;;;;;;4327089;33;46020;-83
2022/03/03 08:52:53;;;;;;;;;;;6.60;94.90;;;;;;4315691;33;43107;-84
2022/03/03 08:55:21;;;;;;;;;;;6.60;95.20;;;;;;4316502;33;44644;-83
2022/03/03 08:57:48;;;;;;;;;;;6.60;95.00;;;;;;4316422;33;43915;-83
2022/03/03 09:00:15;;;;;;;;;;;6.70;94.80;;;;;;4315909;33;42573;-83
2022/03/03 09:02:43;;;;;;;;;;;6.60;94.60;;;;;;4327167;33;43842;-83
2022/03/03 09:05:10;;;;;;;;;;;6.70;94.50;;;;;;4316248;33;43575;-82
2022/03/03 09:07:38;;;;;;;;;;;6.70;94.80;;;;;;4316079;33;44369;-83
2022/03/03 09:10:06;;;;;;;;;;;6.70;94.50;;;;;;4327250;33;44211;-83
2022/03/03 09:12:33;;;;;;;;;;;6.70;94.70;;;;;;4316225;33;43478;-83
2022/03/03 09:15:00;;;;;;;;;;;6.70;95.10;;;;;;4327179;33;44410;-83
2022/03/03 09:17:32;;;;;;;;;;;6.70;95.40;;;;;;4326333;33;43453;-83
2022/03/03 09:20:00;;;;;;;;;;;6.70;95.50;;;;;;4315970;33;42688;-84
2022/03/03 09:22:28;;;;;;;;;;;6.70;95.70;;;;;;4316284;33;43979;-84
2022/03/03 09:24:55;;;;;;;;;;;6.80;96.10;;;;;;4326716;33;42654;-83
2022/03/03 09:27:23;;;;;;;;;;;6.80;95.90;;;;;;4316057;33;44029;-83
2022/03/03 09:29:50;;;;;;;;;;;6.80;95.90;;;;;;4315710;33;43450;-83
2022/03/03 09:32:18;;;;;;;;;;;6.80;96.30;;;;;;4315955;33;43952;-83
2022/03/03 09:34:45;;;;;;;;;;;6.80;96.40;;;;;;4326703;33;43469;-83
2022/03/03 09:37:13;;;;;;;;;;;6.80;96.60;;;;;;4316005;33;44928;-83
2022/03/03 09:39:40;;;;;;;;;;;6.80;96.70;;;;;;4315241;33;43914;-84
2022/03/03 09:42:10;;;;;;;;;;;6.90;96.60;;;;;;4315440;33;43980;-83
2022/03/03 09:44:37;;;;;;;;;;;6.90;96.30;;;;;;4315511;33;43950;-83
2022/03/03 09:47:06;;;;;;;;;;;6.90;96.50;;;;;;4326574;33;44275;-83
2022/03/03 09:49:33;;;;;;;;;;;6.90;96.60;;;;;;4326955;33;43517;-83
2022/03/03 09:52:01;;;;;;;;;;;6.90;97.00;;;;;;4315918;33;43966;-83
2022/03/03 09:54:28;;;;;;;;;;;6.90;97.00;;;;;;4314223;33;46026;-83
2022/03/03 09:56:55;;;;;;;;;;;6.90;97.00;;;;;;4315491;33;43192;-83
2022/03/03 09:59:22;;;;;;;;;;;7.00;96.90;;;;;;4326373;33;42537;-83
2022/03/03 10:01:49;;;;;;;;;;;7.00;97.30;;;;;;4326356;33;43691;-83
2022/03/03 10:04:21;;;;;;;;;;;7.00;97.50;;;;;;4315447;33;43197;-83
2022/03/03 10:06:48;;;;;;;;;;;7.00;97.60;;;;;;4326406;33;43196;-83
2022/03/03 10:09:16;;;;;;;;;;;7.00;97.10;;;;;;4315595;33;44111;-83
2022/03/03 10:12:02;;;;;;;;;;;7.00;97.40;;;;;;4315351;33;43266;-83
2022/03/03 10:14:31;;;;;;;;;;;7.00;97.50;;;;;;4315631;33;43839;-83
2022/03/03 10:16:58;;;;;;;;;;;7.10;97.50;;;;;;4315729;33;43567;-84
2022/03/03 10:19:51;;;;;;;;;;;7.10;97.10;;;;;;4315643;33;42533;-83
2022/03/03 10:22:22;;;;;;;;;;;7.10;97.50;;;;;;4315747;33;44552;-84
2022/03/03 10:24:51;;;;;;;;;;;7.10;97.30;;;;;;4314795;33;43901;-83
2022/03/03 10:27:19;;;;;;;;;;;7.10;97.40;;;;;;4315553;33;42540;-84
2022/03/03 10:29:46;;;;;;;;;;;7.20;97.50;;;;;;4315749;33;43516;-84
2022/03/03 10:32:21;;;;;;;;;;;7.20;97.60;;;;;;4315267;33;43640;-83
2022/03/03 10:34:49;;;;;;;;;;;7.20;97.50;;;;;;4315847;33;43233;-83
2022/03/03 10:37:20;;;;;;;;;;;7.20;97.70;;;;;;4326362;33;44224;-84
2022/03/03 10:39:54;;;;;;;;;;;7.20;97.80;;;;;;4315843;33;43260;-83
2022/03/03 10:42:22;;;;;;;;;;;7.30;97.80;;;;;;4315720;33;44241;-84
2022/03/03 10:44:51;;;;;;;;;;;7.30;97.90;;;;;;4327163;33;20478;-84
2022/03/03 10:47:18;;;;;;;;;;;7.30;98.20;;;;;;4315218;33;43458;-83
2022/03/03 10:49:47;;;;;;;;;;;7.30;98.40;;;;;;4315280;33;42914;-84
2022/03/03 10:52:16;;;;;;;;;;;7.30;98.30;;;;;;4318035;33;43222;-83
2022/03/03 10:55:02;;;;;;;;;;;7.40;98.30;;;;;;4318112;33;43921;-83
2022/03/03 10:57:33;;;;;;;;;;;7.40;98.00;;;;;;4316773;33;44868;-83
2022/03/03 11:00:03;;;;;;;;;;;7.40;98.10;;;;;;4318155;33;44233;-83
2022/03/03 11:02:32;;;;;;;;;;;7.40;98.10;;;;;;4317604;33;42729;-84
2022/03/03 11:05:00;;;;;;;;;;;7.40;98.30;;;;;;4317044;33;43374;-83
2022/03/03 11:07:27;;;;;;;;;;;7.50;98.40;;;;;;4316762;33;43398;-83
2022/03/03 11:09:55;;;;;;;;;;;7.50;98.40;;;;;;4317469;33;43779;-83
2022/03/03 11:12:22;;;;;;;;;;;7.50;98.40;;;;;;4317594;33;44097;-83
2022/03/03 11:14:49;;;;;;;;;;;7.50;98.40;;;;;;4317797;33;29211;-83
2022/03/03 11:17:20;;;;;;;;;;;7.60;98.60;;;;;;4317289;33;44811;-83
2022/03/03 11:19:48;;;;;;;;;;;7.60;98.80;;;;;;4317635;33;43835;-83
2022/03/03 11:22:16;;;;;;;;;;;7.60;98.90;;;;;;4316670;33;44256;-83
2022/03/03 11:24:43;;;;;;;;;;;7.70;98.90;;;;;;4316848;33;43703;-84
2022/03/03 11:27:11;;;;;;;;;;;7.70;98.90;;;;;;4316293;33;44426;-84
2022/03/03 11:29:38;;;;;;;;;;;7.70;98.90;;;;;;4317806;33;45751;-83
2022/03/03 11:32:14;;;;;;;;;;;7.80;99.00;;;;;;4316645;33;43323;-83
2022/03/03 11:34:46;;;;;;;;;;;7.70;98.80;;;;;;4328354;33;44655;-83
2022/03/03 11:37:16;;;;;;;;;;;7.80;98.60;;;;;;4317059;33;44240;-83
2022/03/03 11:39:47;;;;;;;;;;;7.80;98.60;;;;;;4317568;33;44230;-84
2022/03/03 11:42:35;;;;;;;;;;;7.80;98.70;;;;;;4317011;33;43458;-84
2022/03/03 11:45:08;;;;;;;;;;;7.80;98.60;;;;;;4315689;33;43930;-84
2022/03/03 11:47:36;;;;;;;;;;;7.90;98.40;;;;;;4316905;33;44445;-83
2022/03/03 11:50:03;;;;;;;;;;;7.90;98.50;;;;;;4316846;33;44048;-83
2022/03/03 11:52:31;;;;;;;;;;;8.00;98.60;;;;;;4316027;33;43295;-83
2022/03/03 11:55:18;;;;;;;;;;;8.00;98.30;;;;;;4317259;33;42752;-83
2022/03/03 11:57:45;;;;;;;;;;;8.00;98.60;;;;;;4328133;33;43933;-84
2022/03/03 12:00:18;;;;;;;;;;;8.10;98.60;;;;;;4316811;33;43916;-83
2022/03/03 12:03:04;;;;;;;;;;;8.10;98.60;;;;;;4315699;33;43211;-84
2022/03/03 12:05:36;;;;;;;;;;;8.10;98.50;;;;;;4316707;33;42678;-84
2022/03/03 12:08:04;;;;;;;;;;;8.10;98.50;;;;;;4328238;33;43939;-84
2022/03/03 12:10:32;;;;;;;;;;;8.20;98.20;;;;;;4327695;33;44013;-84
2022/03/03 12:13:18;;;;;;;;;;;8.20;98.10;;;;;;4316567;33;45420;-83
2022/03/03 12:16:05;;;;;;;;;;;8.20;98.20;;;;;;4315805;33;42609;-84
2022/03/03 12:18:35;;;;;;;;;;;8.30;98.10;;;;;;4327906;33;43886;-84
2022/03/03 12:21:21;;;;;;;;;;;8.30;98.00;;;;;;4328044;33;43315;-84
2022/03/03 12:23:49;;;;;;;;;;;8.40;98.00;;;;;;4315372;33;42925;-84
2022/03/03 12:26:16;;;;;;;;;;;8.40;97.80;;;;;;4317076;33;44212;-84
2022/03/03 12:28:45;;;;;;;;;;;8.40;97.70;;;;;;4315363;33;42760;-84
2022/03/03 12:31:23;;;;;;;;;;;8.40;97.70;;;;;;4315865;33;43880;-84
2022/03/03 12:33:57;;;;;;;;;;;8.50;97.60;;;;;;4315273;33;43268;-83
2022/03/03 12:36:24;;;;;;;;;;;8.50;97.60;;;;;;4316277;33;43301;-83
2022/03/03 12:38:52;;;;;;;;;;;8.60;97.60;;;;;;4316127;33;43652;-84
2022/03/03 12:41:21;;;;;;;;;;;8.60;97.50;;;;;;4327575;33;42988;-84
2022/03/03 12:43:48;;;;;;;;;;;8.60;97.80;;;;;;4315489;33;43064;-83
2022/03/03 12:46:15;;;;;;;;;;;8.70;97.50;;;;;;4327235;33;42968;-84
2022/03/03 12:48:45;;;;;;;;;;;8.70;97.70;;;;;;4316537;33;44215;-84
2022/03/03 12:51:12;;;;;;;;;;;8.70;97.70;;;;;;4316356;33;42744;-84
2022/03/03 12:53:43;;;;;;;;;;;8.80;97.80;;;;;;4327420;33;44655;-84
2022/03/03 12:56:31;;;;;;;;;;;8.80;97.50;;;;;;4316395;33;43299;-84
2022/03/03 12:59:00;;;;;;;;;;;8.80;97.60;;;;;;4314942;33;42552;-84
2022/03/03 13:01:28;;;;;;;;;;;8.90;97.50;;;;;;4316169;33;43909;-83
2022/03/03 13:03:55;;;;;;;;;;;8.90;97.20;;;;;;4315392;33;44199;-83
2022/03/03 13:06:23;;;;;;;;;;;9.00;97.10;;;;;;4327519;33;43865;-84
2022/03/03 13:09:11;;;;;;;;;;;9.00;97.10;;;;;;4315802;33;42734;-84
2022/03/03 13:11:38;;;;;;;;;;;9.00;97.30;;;;;;4316258;33;45373;-84
2022/03/03 13:14:06;;;;;;;;;;;9.10;97.20;;;;;;4314274;33;45389;-84
2022/03/03 13:16:37;;;;;;;;;;;9.10;96.90;;;;;;4326608;33;43538;-84
2022/03/03 13:19:04;;;;;;;;;;;9.10;97.30;;;;;;4316005;33;43376;-84
2022/03/03 13:21:32;;;;;;;;;;;9.20;97.20;;;;;;4327181;33;43805;-84
2022/03/03 13:24:01;;;;;;;;;;;9.20;97.20;;;;;;4314927;33;43866;-83
2022/03/03 13:26:54;;;;;;;;;;;9.30;97.00;;;;;;4327101;33;45020;-84
2022/03/03 13:29:25;;;;;;;;;;;9.30;96.80;;;;;;4312416;33;44296;-83
2022/03/03 13:31:53;;;;;;;;;;;9.40;96.80;;;;;;4327077;33;43808;-83
2022/03/03 13:34:22;;;;;;;;;;;9.40;96.30;;;;;;4326590;33;44051;-83
2022/03/03 13:36:52;;;;;;;;;;;9.40;96.10;;;;;;4314410;33;44921;-84
2022/03/03 13:39:31;;;;;;;;;;;9.50;96.30;;;;;;4314552;33;42837;-84
2022/03/03 13:41:58;;;;;;;;;;;9.50;97.00;;;;;;4327309;33;44029;-83
2022/03/03 13:44:25;;;;;;;;;;;9.50;96.10;;;;;;4315491;33;43926;-83
2022/03/03 13:46:59;;;;;;;;;;;9.60;96.60;;;;;;4316153;33;43813;-83
2022/03/03 13:49:27;;;;;;;;;;;9.60;97.00;;;;;;4315576;33;44469;-83
2022/03/03 13:52:10;;;;;;;;;;;9.70;96.80;;;;;;4326773;33;43008;-84
2022/03/03 13:54:43;;;;;;;;;;;9.70;96.70;;;;;;4315885;33;42682;-84
2022/03/03 13:57:29;;;;;;;;;;;9.70;96.10;;;;;;4314514;33;43188;-84
2022/03/03 13:59:57;;;;;;;;;;;9.80;96.10;;;;;;4315236;33;43975;-83
2022/03/03 14:02:25;;;;;;;;;;;9.80;96.00;;;;;;4315355;33;43806;-84
2022/03/03 14:04:56;;;;;;;;;;;9.80;95.50;;;;;;4315757;33;43024;-84
2022/03/03 14:07:30;;;;;;;;;;;9.90;95.50;;;;;;4315381;33;44311;-84
2022/03/03 14:09:57;;;;;;;;;;;10.00;95.00;;;;;;4315438;33;43193;-84
2022/03/03 14:12:24;;;;;;;;;;;10.00;95.70;;;;;;4314272;33;44224;-84
2022/03/03 14:15:05;;;;;;;;;;;10.00;95.90;;;;;;4315747;33;43278;-84
2022/03/03 14:17:32;;;;;;;;;;;10.00;95.50;;;;;;4315733;33;43469;-84
2022/03/03 14:19:59;;;;;;;;;;;10.10;95.80;;;;;;4314174;33;44208;-84
2022/03/03 14:22:26;;;;;;;;;;;10.10;95.60;;;;;;4314800;33;44236;-84
2022/03/03 14:24:54;;;;;;;;;;;10.20;95.90;;;;;;4315575;33;44040;-86
2022/03/03 14:27:21;;;;;;;;;;;10.20;95.80;;;;;;4317435;33;43459;-83
2022/03/03 14:29:49;;;;;;;;;;;10.20;95.20;;;;;;4329362;33;44265;-83
2022/03/03 14:32:16;;;;;;;;;;;10.30;95.60;;;;;;4318490;33;44212;-84
2022/03/03 14:34:44;;;;;;;;;;;10.30;95.50;;;;;;4317312;33;43991;-83
2022/03/03 14:37:11;;;;;;;;;;;10.30;96.00;;;;;;4317909;33;42445;-83
2022/03/03 14:39:38;;;;;;;;;;;10.40;95.80;;;;;;4328841;33;43402;-83